Time,TemperatureF,DewpointF,PressureIn,WindDirection,WindDirectionDegrees,WindSpeedMPH,WindSpeedGustMPH,Humidity,HourlyPrecipIn,Conditions,Clouds,dailyrainin,SoftwareType,DateUTC
2013-08-06 00:01:00,64.0,62.2,29.22,North,360,0.0,0.0,94,0.00,,,0.00,Weather View 32 v70,2013-08-06 04:01:00,
2013-08-06 00:02:00,64.0,62.5,29.22,North,360,0.0,0.0,95,0.00,,,0.00,Weather View 32 v70,2013-08-06 04:02:00,
2013-08-06 00:07:00,64.0,62.5,29.22,North,360,0.0,0.0,95,0.00,,,0.00,Weather View 32 v70,2013-08-06 04:07:00,
2013-08-06 00:12:00,64.0,62.5,29.22,North,360,0.0,0.0,95,0.00,,,0.00,Weather View 32 v70,2013-08-06 04:12:00,
2013-08-06 00:17:00,64.0,62.5,29.22,North,360,0.0,0.0,95,0.00,,,0.00,Weather View 32 v70,2013-08-06 04:17:00,
2013-08-06 00:22:00,64.0,62.5,29.23,North,360,0.0,0.0,95,0.00,,,0.00,Weather View 32 v70,2013-08-06 04:22:00,
2013-08-06 00:27:00,64.0,62.5,29.23,North,360,0.0,0.0,95,0.00,,,0.00,Weather View 32 v70,2013-08-06 04:27:00,
2013-08-06 00:32:00,64.0,62.5,29.23,North,360,0.0,0.0,95,0.00,,,0.00,Weather View 32 v70,2013-08-06 04:32:00,
2013-08-06 00:37:00,65.0,63.5,29.23,North,360,0.0,0.0,95,0.00,,,0.00,Weather View 32 v70,2013-08-06 04:37:00,
2013-08-06 00:42:00,65.0,63.5,29.23,North,360,0.0,0.0,95,0.00,,,0.00,Weather View 32 v70,2013-08-06 04:42:00,
2013-08-06 00:47:00,65.0,63.5,29.23,North,360,0.0,0.0,95,0.00,,,0.00,Weather View 32 v70,2013-08-06 04:47:00,
2013-08-06 00:52:00,65.0,63.5,29.23,North,360,0.0,0.0,95,0.00,,,0.00,Weather View 32 v70,2013-08-06 04:52:00,
2013-08-06 00:57:00,65.0,63.5,29.23,North,360,0.0,0.0,95,0.00,,,0.00,Weather View 32 v70,2013-08-06 04:57:00,
2013-08-06 01:02:00,65.0,63.5,29.23,North,360,0.0,0.0,95,0.00,,,0.00,Weather View 32 v70,2013-08-06 05:02:00,
2013-08-06 01:07:00,65.0,63.5,29.23,North,360,0.0,0.0,95,0.00,,,0.00,Weather View 32 v70,2013-08-06 05:07:00,
2013-08-06 01:12:00,66.0,64.8,29.22,North,360,0.0,0.0,96,0.00,,,0.00,Weather View 32 v70,2013-08-06 05:12:00,
2013-08-06 01:17:00,66.0,64.5,29.22,North,360,0.0,0.0,95,0.00,,,0.00,Weather View 32 v70,2013-08-06 05:17:00,
2013-08-06 01:22:00,66.0,64.5,29.22,North,360,0.0,0.0,95,0.00,,,0.00,Weather View 32 v70,2013-08-06 05:22:00,
2013-08-06 01:27:00,66.0,64.5,29.23,North,360,0.0,0.0,95,0.00,,,0.00,Weather View 32 v70,2013-08-06 05:27:00,
2013-08-06 01:32:00,66.0,64.2,29.23,North,360,0.0,0.0,94,0.00,,,0.00,Weather View 32 v70,2013-08-06 05:32:00,
2013-08-06 01:33:00,67.0,64.9,29.23,North,360,0.0,0.0,93,0.00,,,0.00,Weather View 32 v70,2013-08-06 05:33:00,
2013-08-06 06:44:00,69.0,67.5,29.22,ESE,112,0.0,0.0,95,-0.24,,,0.00,Weather View 32 v70,2013-08-06 10:44:00,
2013-08-06 06:49:00,68.0,67.1,29.22,SW,225,0.0,0.0,97,-0.24,,,0.00,Weather View 32 v70,2013-08-06 10:49:00,
2013-08-06 06:54:00,68.0,67.1,29.22,SW,225,0.0,0.0,97,-0.24,,,0.00,Weather View 32 v70,2013-08-06 10:54:00,
2013-08-06 06:59:00,68.0,67.1,29.22,South,180,0.0,0.0,97,-0.24,,,0.00,Weather View 32 v70,2013-08-06 10:59:00,
2013-08-06 07:04:00,68.0,66.8,29.22,SSE,157,0.0,0.0,96,-0.24,,,0.00,Weather View 32 v70,2013-08-06 11:04:00,
2013-08-06 07:09:00,68.0,66.8,29.22,SE,135,0.0,0.0,96,-0.24,,,0.00,Weather View 32 v70,2013-08-06 11:09:00,
2013-08-06 07:14:00,68.0,66.8,29.22,SE,135,0.0,0.0,96,-0.24,,,0.00,Weather View 32 v70,2013-08-06 11:14:00,
2013-08-06 07:19:00,68.0,66.8,29.22,SE,135,0.0,0.0,96,-0.24,,,0.00,Weather View 32 v70,2013-08-06 11:19:00,
2013-08-06 07:24:00,68.0,66.8,29.22,East,90,0.0,2.0,96,-0.24,,,0.00,Weather View 32 v70,2013-08-06 11:24:00,
2013-08-06 07:29:00,68.0,66.8,29.22,East,90,0.0,2.0,96,-0.24,,,0.00,Weather View 32 v70,2013-08-06 11:29:00,
2013-08-06 07:35:00,68.0,66.8,29.22,East,90,0.0,2.0,96,0.00,,,0.00,Weather View 32 v70,2013-08-06 11:35:00,
2013-08-06 07:40:00,67.0,66.1,29.22,NNE,22,0.0,2.0,97,0.01,,,0.01,Weather View 32 v70,2013-08-06 11:40:00,
2013-08-06 07:45:00,67.0,66.1,29.22,NNE,22,0.0,2.0,97,0.02,,,0.02,Weather View 32 v70,2013-08-06 11:45:00,
2013-08-06 07:50:00,67.0,66.1,29.22,NNE,22,0.0,2.0,97,0.02,,,0.02,Weather View 32 v70,2013-08-06 11:50:00,
2013-08-06 07:55:00,67.0,66.4,29.22,NE,45,0.0,2.0,98,0.02,,,0.02,Weather View 32 v70,2013-08-06 11:55:00,
2013-08-06 08:00:00,66.0,65.4,29.23,NE,45,0.0,2.0,98,0.02,,,0.02,Weather View 32 v70,2013-08-06 12:00:00,
2013-08-06 08:05:00,66.0,65.4,29.23,NE,45,0.0,2.0,98,0.02,,,0.02,Weather View 32 v70,2013-08-06 12:05:00,
2013-08-06 08:10:00,66.0,65.1,29.23,SE,135,0.0,4.0,97,0.02,,,0.02,Weather View 32 v70,2013-08-06 12:10:00,
2013-08-06 08:15:00,66.0,64.8,29.23,SSE,157,0.0,4.0,96,0.02,,,0.02,Weather View 32 v70,2013-08-06 12:15:00,
2013-08-06 08:20:00,66.0,64.8,29.23,SE,135,0.0,4.0,96,0.02,,,0.02,Weather View 32 v70,2013-08-06 12:20:00,
2013-08-06 08:25:00,66.0,64.8,29.23,SE,135,0.0,4.0,96,0.02,,,0.02,Weather View 32 v70,2013-08-06 12:25:00,
2013-08-06 08:30:00,67.0,65.5,29.23,SSE,157,0.0,4.0,95,0.02,,,0.02,Weather View 32 v70,2013-08-06 12:30:00,
2013-08-06 08:35:00,67.0,64.9,29.23,ENE,67,0.0,4.0,93,0.02,,,0.02,Weather View 32 v70,2013-08-06 12:35:00,
2013-08-06 08:40:00,67.0,64.9,29.24,NE,45,0.0,4.0,93,0.01,,,0.02,Weather View 32 v70,2013-08-06 12:40:00,
2013-08-06 08:45:00,67.0,64.3,29.24,ESE,112,0.0,4.0,91,0.01,,,0.03,Weather View 32 v70,2013-08-06 12:45:00,
2013-08-06 08:50:00,67.0,64.0,29.24,South,180,0.0,4.0,90,0.01,,,0.03,Weather View 32 v70,2013-08-06 12:50:00,
2013-08-06 08:55:00,67.0,64.0,29.24,South,180,0.0,4.0,90,0.01,,,0.03,Weather View 32 v70,2013-08-06 12:55:00,
2013-08-06 09:00:00,68.0,64.6,29.24,SE,135,0.0,4.0,89,0.01,,,0.03,Weather View 32 v70,2013-08-06 13:00:00,
2013-08-06 09:05:00,68.0,64.3,29.24,SE,135,0.0,4.0,88,0.01,,,0.03,Weather View 32 v70,2013-08-06 13:05:00,
2013-08-06 18:41:00,71.0,70.1,29.25,NE,45,0.0,0.0,97,0.03,,,0.03,Weather View 32 v70,2013-08-06 22:41:00,
2013-08-06 18:46:00,71.0,70.1,29.25,SE,135,0.0,0.0,97,0.03,,,0.03,Weather View 32 v70,2013-08-06 22:46:00,
2013-08-06 18:51:00,71.0,70.1,29.24,South,180,0.0,3.0,97,0.03,,,0.03,Weather View 32 v70,2013-08-06 22:51:00,
2013-08-06 18:56:00,71.0,70.1,29.25,South,180,0.0,3.0,97,0.03,,,0.03,Weather View 32 v70,2013-08-06 22:56:00,
2013-08-06 19:01:00,71.0,70.1,29.24,ESE,112,0.0,3.0,97,0.03,,,0.03,Weather View 32 v70,2013-08-06 23:01:00,
2013-08-06 19:06:00,71.0,70.1,29.25,NE,45,0.0,3.0,97,0.03,,,0.03,Weather View 32 v70,2013-08-06 23:06:00,
2013-08-06 19:11:00,71.0,70.1,29.25,NE,45,0.0,4.0,97,0.03,,,0.03,Weather View 32 v70,2013-08-06 23:11:00,
2013-08-06 19:16:00,71.0,70.1,29.25,ENE,67,0.0,5.0,97,0.03,,,0.03,Weather View 32 v70,2013-08-06 23:16:00,
2013-08-06 19:21:00,71.0,70.1,29.25,SE,135,0.0,5.0,97,0.03,,,0.03,Weather View 32 v70,2013-08-06 23:21:00,
2013-08-06 19:26:00,71.0,70.1,29.25,SSE,157,0.0,5.0,97,0.03,,,0.03,Weather View 32 v70,2013-08-06 23:26:00,
2013-08-06 19:31:00,71.0,70.1,29.26,ESE,112,0.0,5.0,97,0.03,,,0.03,Weather View 32 v70,2013-08-06 23:31:00,
2013-08-06 19:36:00,70.0,69.1,29.26,SSE,157,0.0,5.0,97,0.03,,,0.03,Weather View 32 v70,2013-08-06 23:36:00,
2013-08-06 19:41:00,70.0,69.1,29.26,SSW,202,0.0,5.0,97,0.00,,,0.03,Weather View 32 v70,2013-08-06 23:41:00,
2013-08-06 19:46:00,70.0,69.1,29.25,SE,135,4.0,5.0,97,0.00,,,0.03,Weather View 32 v70,2013-08-06 23:46:00,
2013-08-06 19:51:00,70.0,69.1,29.25,SSE,157,0.0,5.0,97,0.00,,,0.03,Weather View 32 v70,2013-08-06 23:51:00,
2013-08-06 19:56:00,70.0,69.1,29.25,ESE,112,0.0,5.0,97,0.00,,,0.03,Weather View 32 v70,2013-08-06 23:56:00,
2013-08-06 20:01:00,70.0,69.1,29.26,SSE,157,1.0,5.0,97,0.00,,,0.03,Weather View 32 v70,2013-08-07 00:01:00,
2013-08-06 20:06:00,70.0,69.1,29.26,South,180,0.0,5.0,97,0.00,,,0.03,Weather View 32 v70,2013-08-07 00:06:00,
2013-08-06 20:11:00,69.0,67.8,29.26,South,180,0.0,5.0,96,0.00,,,0.03,Weather View 32 v70,2013-08-07 00:11:00,
2013-08-06 20:16:00,69.0,67.8,29.26,SE,135,0.0,5.0,96,0.00,,,0.03,Weather View 32 v70,2013-08-07 00:16:00,
2013-08-06 20:21:00,69.0,67.8,29.26,SSE,157,0.0,5.0,96,0.00,,,0.03,Weather View 32 v70,2013-08-07 00:21:00,
2013-08-06 20:26:00,69.0,67.8,29.26,SE,135,0.0,5.0,96,0.00,,,0.03,Weather View 32 v70,2013-08-07 00:26:00,
2013-08-06 20:31:00,69.0,67.8,29.26,SE,135,0.0,5.0,96,0.00,,,0.03,Weather View 32 v70,2013-08-07 00:31:00,
2013-08-06 20:36:00,69.0,67.8,29.26,SSW,202,0.0,5.0,96,0.00,,,0.03,Weather View 32 v70,2013-08-07 00:36:00,
2013-08-06 20:42:00,69.0,67.8,29.26,SSE,157,0.0,5.0,96,0.00,,,0.03,Weather View 32 v70,2013-08-07 00:42:00,
2013-08-06 20:46:00,69.0,67.8,29.26,SSE,157,0.0,5.0,96,0.00,,,0.03,Weather View 32 v70,2013-08-07 00:46:00,
2013-08-06 20:52:00,69.0,67.8,29.26,SE,135,0.0,5.0,96,0.00,,,0.03,Weather View 32 v70,2013-08-07 00:52:00,
2013-08-06 20:57:00,69.0,67.8,29.26,SSW,202,0.0,5.0,96,0.00,,,0.03,Weather View 32 v70,2013-08-07 00:57:00,
2013-08-06 21:02:00,69.0,67.8,29.26,WSW,247,0.0,5.0,96,0.00,,,0.03,Weather View 32 v70,2013-08-07 01:02:00,
2013-08-06 21:07:00,69.0,67.8,29.27,SE,135,0.0,5.0,96,0.00,,,0.03,Weather View 32 v70,2013-08-07 01:07:00,
2013-08-06 21:12:00,69.0,67.8,29.26,SE,135,0.0,5.0,96,0.00,,,0.03,Weather View 32 v70,2013-08-07 01:12:00,
2013-08-06 21:17:00,69.0,67.8,29.26,ESE,112,3.0,5.0,96,0.00,,,0.03,Weather View 32 v70,2013-08-07 01:17:00,
2013-08-06 21:22:00,69.0,67.8,29.27,SE,135,0.0,5.0,96,0.00,,,0.03,Weather View 32 v70,2013-08-07 01:22:00,
2013-08-06 21:27:00,69.0,67.8,29.27,East,90,0.0,5.0,96,0.00,,,0.03,Weather View 32 v70,2013-08-07 01:27:00,
2013-08-06 21:32:00,69.0,67.8,29.26,SSE,157,0.0,5.0,96,0.00,,,0.03,Weather View 32 v70,2013-08-07 01:32:00,
2013-08-06 21:37:00,69.0,67.8,29.26,SE,135,0.0,5.0,96,0.00,,,0.03,Weather View 32 v70,2013-08-07 01:37:00,
2013-08-06 21:42:00,69.0,67.8,29.27,SSE,157,0.0,5.0,96,0.00,,,0.03,Weather View 32 v70,2013-08-07 01:42:00,
2013-08-06 21:47:00,69.0,67.8,29.27,South,180,0.0,5.0,96,0.00,,,0.03,Weather View 32 v70,2013-08-07 01:47:00,
2013-08-06 21:52:00,69.0,67.8,29.27,SSE,157,0.0,5.0,96,0.00,,,0.03,Weather View 32 v70,2013-08-07 01:52:00,
2013-08-06 21:57:00,69.0,67.8,29.27,SE,135,0.0,5.0,96,0.00,,,0.03,Weather View 32 v70,2013-08-07 01:57:00,
2013-08-06 22:02:00,69.0,67.8,29.26,ESE,112,3.0,5.0,96,0.00,,,0.03,Weather View 32 v70,2013-08-07 02:02:00,
2013-08-06 22:07:00,69.0,67.8,29.26,SSE,157,0.0,5.0,96,0.00,,,0.03,Weather View 32 v70,2013-08-07 02:07:00,
2013-08-06 22:12:00,69.0,67.8,29.26,ESE,112,0.0,7.0,96,0.00,,,0.03,Weather View 32 v70,2013-08-07 02:12:00,
2013-08-06 22:17:00,69.0,67.8,29.26,NNE,22,0.0,7.0,96,0.00,,,0.03,Weather View 32 v70,2013-08-07 02:17:00,
2013-08-06 22:22:00,69.0,67.8,29.26,ESE,112,0.0,7.0,96,0.00,,,0.03,Weather View 32 v70,2013-08-07 02:22:00,
2013-08-06 22:27:00,69.0,67.8,29.26,East,90,0.0,7.0,96,0.00,,,0.03,Weather View 32 v70,2013-08-07 02:27:00,
2013-08-06 22:32:00,69.0,67.8,29.26,ESE,112,0.0,7.0,96,0.00,,,0.03,Weather View 32 v70,2013-08-07 02:32:00,
2013-08-06 22:37:00,69.0,67.8,29.27,ESE,112,0.0,7.0,96,0.00,,,0.03,Weather View 32 v70,2013-08-07 02:37:00,
2013-08-06 22:42:00,69.0,67.8,29.27,ESE,112,0.0,7.0,96,0.00,,,0.03,Weather View 32 v70,2013-08-07 02:42:00,
2013-08-06 22:47:00,69.0,67.8,29.26,SW,225,0.0,7.0,96,0.00,,,0.03,Weather View 32 v70,2013-08-07 02:47:00,
2013-08-06 22:52:00,69.0,67.8,29.26,SE,135,0.0,7.0,96,0.00,,,0.03,Weather View 32 v70,2013-08-07 02:52:00,
2013-08-06 22:57:00,69.0,67.8,29.27,ESE,112,0.0,7.0,96,0.00,,,0.03,Weather View 32 v70,2013-08-07 02:57:00,
2013-08-06 23:02:00,69.0,67.8,29.27,SE,135,2.0,7.0,96,0.00,,,0.03,Weather View 32 v70,2013-08-07 03:02:00,
2013-08-06 23:07:00,69.0,67.8,29.27,SE,135,0.0,7.0,96,0.00,,,0.03,Weather View 32 v70,2013-08-07 03:07:00,
2013-08-06 23:12:00,69.0,67.8,29.27,SSW,202,0.0,7.0,96,0.00,,,0.03,Weather View 32 v70,2013-08-07 03:12:00,
2013-08-06 23:17:00,69.0,67.8,29.27,SSE,157,0.0,7.0,96,0.00,,,0.03,Weather View 32 v70,2013-08-07 03:17:00,
2013-08-06 23:22:00,69.0,67.8,29.27,ESE,112,0.0,7.0,96,0.00,,,0.03,Weather View 32 v70,2013-08-07 03:22:00,
2013-08-06 23:27:00,69.0,67.8,29.27,SE,135,0.0,7.0,96,0.00,,,0.03,Weather View 32 v70,2013-08-07 03:27:00,
2013-08-06 23:32:00,69.0,68.1,29.27,SSE,157,0.0,7.0,97,0.00,,,0.03,Weather View 32 v70,2013-08-07 03:32:00,
2013-08-06 23:37:00,69.0,68.1,29.27,SE,135,0.0,7.0,97,0.00,,,0.03,Weather View 32 v70,2013-08-07 03:37:00,
2013-08-06 23:42:00,69.0,67.8,29.27,SE,135,0.0,7.0,96,0.00,,,0.03,Weather View 32 v70,2013-08-07 03:42:00,
2013-08-06 23:47:00,69.0,67.8,29.27,SE,135,0.0,7.0,96,0.00,,,0.03,Weather View 32 v70,2013-08-07 03:47:00,
2013-08-06 23:52:00,69.0,67.8,29.27,SSE,157,0.0,7.0,96,0.00,,,0.03,Weather View 32 v70,2013-08-07 03:52:00,
2013-08-06 23:57:00,69.0,67.8,29.27,SSE,157,0.0,7.0,96,0.00,,,0.03,Weather View 32 v70,2013-08-07 03:57:00,